Flight Track Log - Related Links

Times and Time Zones

All times are in EDT time to prevent confusion due to time zone crossing. See the JBU917 flight status page for this flight to view local times or setup timezone preferences in your user account.

Time Position Orientation Groundspeed Altitude Reporting Facility
EDT Latitude Longitude Course Direction KTS MPH feet Rate Location/Type
Tue 04:17:57 PM 40.6333 -73.8333 304° West 173 199 1,700  Level New York TRACON
Tue 04:18:57 PM 40.5833 -73.8500 194° South 243 280 3,600 2,190 Climbing New York TRACON
Tue 04:19:00 PM 40.7864 -74.0562 304° West  Level FlightAware Approximate
Tue 04:20:00 PM 40.8376 -74.1585 304° West  Level FlightAware Approximate
Tue 04:20:03 PM 40.6000 -73.7500 78° East 279 321 6,300  Level New York TRACON
Tue 04:20:57 PM 40.6333 -73.6667 62° Northeast 291 335 8,700 2,421 Climbing New York TRACON
Tue 04:21:00 PM 40.8902 -74.2597 306° West  Level FlightAware Approximate
Tue 04:21:57 PM 40.7000 -73.6000 37° Northeast 305 351 10,900  Level New York TRACON
Tue 04:22:00 PM 40.9445 -74.3593 306° West  Level FlightAware Approximate
Tue 04:22:57 PM 40.7833 -73.5500 24° Northeast 354 407 12,700  Level New York TRACON
Tue 04:23:00 PM 41.0022 -74.4543 304° West  Level FlightAware Approximate
Tue 04:23:57 PM 40.8833 -73.5667 353° North 346 398 14,900  Level New York TRACON
Tue 04:24:57 PM 40.9333 -73.6500 308° West 338 389 16,800 1,050 Climbing New York TRACON
Tue 04:25:57 PM 41.0000 -73.7667 307° West 362 417 17,000 100 Climbing New York TRACON
Tue 04:26:57 PM 41.0167 -73.9000 279° West 355 409 17,000  Level New York TRACON
Tue 04:29:17 PM 41.0600 -74.1889 281° West 357 411 17,000  Level New York Center
Tue 04:30:18 PM 41.0792 -74.3136 282° West 357 411 17,000  Level New York Center
Tue 04:31:18 PM 41.1003 -74.4414 282° West 356 410 17,000  Level New York Center
Tue 04:32:16 PM 41.1172 -74.5689 280° West 356 410 17,000 972 Level New York Center
Tue 04:34:17 PM 41.1825 -74.7986 291° West 356 410 19,900 1,425 Climbing New York Center
Tue 04:35:17 PM 41.2364 -74.9261 299° West 368 423 21,300 1,488 Climbing New York Center
Tue 04:36:18 PM 41.2903 -75.0508 300° West 386 444 22,900 1,587 Climbing New York Center
Tue 04:37:18 PM 41.3458 -75.1786 300° West 391 450 24,500 1,576 Climbing New York Center
Tue 04:38:16 PM 41.3994 -75.3039 300° West 391 450 26,000 1,300 Climbing New York Center
Tue 04:39:18 PM 41.4547 -75.4350 299° West 396 456 27,100 4,000 Climbing New York Center
Tue 04:40:16 PM 41.5053 -75.5825 295° West 401 461 34,000 1,525 Climbing New York Center
Tue 04:41:16 PM 41.5397 -75.7042 291° West 401 461 30,100 -1,339 Descending New York Center
Tue 04:42:17 PM 41.5778 -75.8372 291° West 390 449 31,300 1,279 Climbing New York Center
Tue 04:43:18 PM 41.6194 -75.9819 291° West 384 442 32,700 347 Climbing New York Center
Tue 04:44:18 PM 41.6553 -76.1125 290° West 378 435 32,000 -356 Descending New York Center
Tue 04:45:16 PM 41.6947 -76.2517 291° West 384 442 32,000  Level New York Center
Tue 04:46:16 PM 41.7342 -76.3911 291° West 389 448 32,000  Level New York Center
Tue 04:47:16 PM 41.7658 -76.5136 289° West 394 453 32,000  Level New York Center
Tue 04:48:17 PM 41.8031 -76.6475 290° West 394 453 32,000  Level New York Center
Tue 04:49:18 PM 41.8439 -76.7847 292° West 394 453 32,000 429 Level New York Center
Tue 04:50:09 PM 41.8786 -76.9183 289° West 394 453 32,800 541 Climbing Cleveland Center
Tue 04:51:09 PM 41.9142 -77.0531 290° West 394 453 33,000 100 Climbing Cleveland Center
Tue 04:52:09 PM 41.9536 -77.1878 292° West 394 453 33,000 400 Level Cleveland Center
Tue 04:53:09 PM 41.9867 -77.3175 289° West 382 440 33,800 500 Climbing Cleveland Center
Tue 04:54:09 PM 42.0236 -77.4497 291° West 382 440 34,000 100 Climbing Cleveland Center
Tue 04:55:09 PM 42.0586 -77.5850 289° West 382 440 34,000  Level Cleveland Center
Tue 04:56:09 PM 42.0953 -77.7203 290° West 382 440 34,000  Level Cleveland Center
Tue 04:57:09 PM 42.1300 -77.8561 289° West 382 440 34,000  Level Cleveland Center
Tue 04:58:09 PM 42.1597 -77.9753 289° West 382 440 34,000  Level Cleveland Center
Tue 04:59:09 PM 42.1961 -78.1111 290° West 382 440 34,000  Level Cleveland Center
Tue 05:00:09 PM 42.2322 -78.2472 290° West 382 440 34,000  Level Cleveland Center
Tue 05:01:09 PM 42.2642 -78.3806 288° West 382 440 34,000  Level Cleveland Center
Tue 05:02:09 PM 42.3000 -78.5142 290° West 382 440 34,000  Level Cleveland Center
Tue 05:03:09 PM 42.3333 -78.6394 290° West 377 434 34,000  Level Cleveland Center
Tue 05:04:09 PM 42.3647 -78.7733 288° West 372 428 34,000  Level Cleveland Center
Tue 05:05:09 PM 42.3981 -78.9019 289° West 367 422 34,000  Level Cleveland Center
Tue 05:06:09 PM 42.4289 -79.0306 288° West 362 417 34,000  Level Cleveland Center
Tue 05:07:09 PM 42.4639 -79.1647 290° West 362 417 34,000  Level Cleveland Center
Tue 05:08:09 PM 42.4928 -79.2964 287° West 362 417 34,000  Level Cleveland Center
Tue 05:09:09 PM 42.5003 -79.4369 274° West 372 428 34,000  Level Cleveland Center
Tue 05:10:09 PM 42.5081 -79.5806 274° West 378 435 34,000  Level Cleveland Center
Tue 05:11:09 PM 42.5133 -79.7214 273° West 385 443 34,000  Level Cleveland Center
Tue 05:12:09 PM 42.5206 -79.8647 274° West 385 443 34,000  Level Cleveland Center
Tue 05:13:09 PM 42.5233 -80.0197 271° West 385 443 34,000  Level Cleveland Center
Tue 05:14:09 PM 42.5303 -80.1661 274° West 385 443 34,000  Level Cleveland Center
Tue 05:15:09 PM 42.5369 -80.3097 274° West 385 443 34,000  Level Cleveland Center
Tue 05:16:09 PM 42.5436 -80.4536 274° West 385 443 34,000  Level Cleveland Center
Tue 05:17:09 PM 42.5519 -80.5972 275° West 386 444 34,000  Level Cleveland Center
Tue 05:18:09 PM 42.5539 -80.7269 271° West 386 444 34,000  Level Cleveland Center
Tue 05:19:09 PM 42.5600 -80.8708 273° West 383 441 34,000  Level Cleveland Center
Tue 05:20:09 PM 42.5656 -81.0172 273° West 389 448 34,000  Level Cleveland Center
Tue 05:21:09 PM 42.5714 -81.1639 273° West 381 438 34,000  Level Cleveland Center
Tue 05:22:09 PM 42.5747 -81.3106 272° West 388 447 34,000  Level Cleveland Center
Tue 05:23:09 PM 42.5842 -81.4544 275° West 388 447 34,000  Level Cleveland Center
Tue 05:24:09 PM 42.6078 -81.5986 283° West 388 447 34,000  Level Cleveland Center
Tue 05:25:09 PM 42.6336 -81.7375 284° West 388 447 34,000  Level Cleveland Center
Tue 05:26:09 PM 42.6611 -81.8933 284° West 388 447 34,000  Level Cleveland Center
Tue 05:27:09 PM 42.6864 -82.0378 283° West 394 453 34,000  Level Cleveland Center
Tue 05:28:09 PM 42.7097 -82.1825 282° West 394 453 34,000  Level Cleveland Center
Tue 05:29:09 PM 42.7347 -82.3244 284° West 394 453 34,000  Level Cleveland Center
Tue 05:30:09 PM 42.7572 -82.4722 282° West 394 453 34,000  Level Cleveland Center
Tue 05:31:09 PM 42.7819 -82.6144 283° West 394 453 34,000  Level Cleveland Center
Tue 05:32:09 PM 42.8064 -82.7567 283° West 394 453 34,000  Level Cleveland Center
Tue 05:33:09 PM 42.8308 -82.8992 283° West 394 453 34,000  Level Cleveland Center
Tue 05:34:09 PM 42.8528 -83.0414 282° West 394 453 34,000  Level Cleveland Center
Tue 05:35:09 PM 42.8750 -83.1728 283° West 394 453 34,000  Level Cleveland Center
Tue 05:36:09 PM 42.8967 -83.3153 282° West 394 453 34,000 -350 Level Cleveland Center
Tue 05:37:09 PM 42.8994 -83.4628 272° West 394 453 33,300 -850 Descending Cleveland Center
Tue 05:38:09 PM 42.8975 -83.6158 269° West 394 453 32,300 -1,000 Descending Cleveland Center
Tue 05:39:09 PM 42.8956 -83.7658 269° West 399 459 31,300 -1,000 Descending Cleveland Center
Tue 05:40:09 PM 42.8956 -83.9133 270° West 399 459 30,300 -1,048 Descending Cleveland Center
Tue 05:42:18 PM 42.8906 -84.2431 269° West 381 438 28,000 -723 Descending Chicago Center
Tue 05:43:20 PM 42.8881 -84.3831 269° West 373 429 28,000  Level Chicago Center
Tue 05:44:21 PM 42.8861 -84.5256 269° West 377 434 28,000  Level Chicago Center
Tue 05:45:23 PM 42.8753 -84.6661 264° West 375 432 28,000  Level Chicago Center
Tue 05:46:25 PM 42.8403 -84.8006 250° West 378 435 28,000  Level Chicago Center
Tue 05:47:27 PM 42.8022 -84.9361 249° West 382 440 28,000  Level Chicago Center
Tue 05:48:29 PM 42.7642 -85.0708 249° West 382 440 28,000  Level Chicago Center
Tue 05:49:31 PM 42.7197 -85.2297 249° West 376 433 28,000  Level Chicago Center
Tue 05:50:33 PM 42.6822 -85.3619 249° West 375 432 28,000  Level Chicago Center
Tue 05:51:34 PM 42.6431 -85.4964 248° West 375 432 28,000  Level Chicago Center
Tue 05:52:36 PM 42.6056 -85.6267 249° West 376 433 28,000 -435 Level Chicago Center
Tue 05:53:38 PM 42.5689 -85.7558 249° West 370 426 27,100 -1,258 Descending Chicago Center
Tue 05:54:40 PM 42.5317 -85.8803 248° West 359 413 25,400 -1,694 Descending Chicago Center
Tue 05:55:42 PM 42.4956 -86.0003 248° West 346 398 23,600 -1,742 Descending Chicago Center
Tue 05:56:44 PM 42.4639 -86.1203 250° West 341 392 21,800 -1,548 Descending Chicago Center
Tue 05:57:46 PM 42.4583 -86.2631 267° West 320 368 20,400 -1,268 Descending Chicago Center
Tue 05:58:47 PM 42.4514 -86.3819 266° West 317 365 19,200 -1,171 Descending Chicago Center
Tue 05:59:49 PM 42.4450 -86.4981 266° West 312 359 18,000 -1,113 Descending Chicago Center
Tue 06:00:51 PM 42.4386 -86.6150 266° West 312 359 16,900 -1,065 Descending Chicago Center
Tue 06:01:53 PM 42.4333 -86.7306 266° West 309 356 15,800 -1,113 Descending Chicago Center
Tue 06:02:55 PM 42.4269 -86.8447 266° West 305 351 14,600 -1,065 Descending Chicago Center
Tue 06:03:57 PM 42.4203 -86.9589 266° West 305 351 13,600 -919 Descending Chicago Center
Tue 06:04:59 PM 42.4114 -87.0925 265° West 298 343 12,700 -968 Descending Chicago Center
Tue 06:06:01 PM 42.4042 -87.2047 265° West 300 345 11,600 -1,258 Descending Chicago Center
Tue 06:07:03 PM 42.3967 -87.3144 265° West 295 339 10,100 -774 Descending Chicago Center
Tue 06:08:05 PM 42.3564 -87.4150 242° Southwest 297 342 10,000  Descending Chicago Center
Tue 06:09:07 PM 42.2994 -87.4975 227° Southwest 303 349 10,100  Climbing Chicago Center
Tue 06:10:09 PM 42.2419 -87.5797 227° Southwest 304 350 10,000 -48 Descending Chicago Center
Tue 06:11:11 PM 42.1864 -87.6619 228° Southwest 300 345 10,000 -871 Level Chicago Center
Tue 06:12:13 PM 42.1264 -87.7464 226° Southwest 265 305 8,200 -1,452 Descending Chicago Center
Tue 06:13:15 PM 42.0911 -87.8222 238° Southwest 253 291 7,000 -581 Descending Chicago Center
Tue 06:14:17 PM 42.0911 -87.9158 270° West 254 292 7,000  Level Chicago Center
Tue 06:15:19 PM 42.0906 -88.0089 270° West 250 288 7,000 -339 Level Chicago Center
Tue 06:16:21 PM 42.0908 -88.0903 270° West 235 270 6,300 -1,282 Descending Chicago Center
Tue 06:17:16 PM 42.0833 -88.1667 262° West 203 234 4,500 -1,148 Descending Chicago TRACON
Tue 06:18:16 PM 42.0667 -88.2167 246° West 216 249 4,100 -200 Descending Chicago TRACON
Tue 06:19:16 PM 42.0000 -88.2167 180° South 211 243 4,100 -150 Level Chicago TRACON
Tue 06:20:16 PM 41.9667 -88.1667 132° Southeast 222 255 3,800 -550 Descending Chicago TRACON
Tue 06:21:16 PM 41.9667 -88.0833 90° East 195 224 3,000 -900 Descending Chicago TRACON
Tue 06:22:16 PM 41.9667 -88.0167 90° East 173 199 2,000 -850 Descending Chicago TRACON
Tue 06:23:16 PM 41.9667 -87.9667 90° East 131 151 1,300 -700 Descending Chicago TRACON
Tue 06:25:00 PM 41.9667 -87.9000 90° East  Level FlightAware Approximate

Login

Don't have an account? Register now (free) for customized features, flight alerts, and more!